Time;durP1;ratioP1;P1;durP2;ratioP2;P2;SDS_P1;SDS_P2;PMS_P1;PMS_P2;Temp;Humidity;BMP_temperature;BMP_pressure;BME280_temperature;BME280_humidity;BME280_pressure;Samples;Min_cycle;Max_cycle;Signal;HPM_P1;HPM_P2
2020/12/26 00:01:21;;;;;;;;;;;1.90;99.90;;;;;;5135631;27;19922;-87
2020/12/26 00:03:51;;;;;;;;;;;1.90;99.90;;;;;;5135649;27;20422;-87
2020/12/26 00:06:23;;;;;;;;;;;1.90;99.90;;;;;;5134137;27;19907;-87
2020/12/26 00:08:50;;;;;;;;;;;1.90;99.90;;;;;;5135311;27;19919;-87
2020/12/26 00:11:19;;;;;;;;;;;1.90;99.90;;;;;;5129222;27;19907;-88
2020/12/26 00:13:51;;;;;;;;;;;1.90;99.90;;;;;;5135362;27;19911;-88
2020/12/26 00:16:19;;;;;;;;;;;2.00;99.90;;;;;;5131547;27;19919;-87
2020/12/26 00:18:50;;;;;;;;;;;2.10;99.90;;;;;;5134806;27;19952;-87
2020/12/26 00:21:16;;;;;;;;;;;2.10;99.90;;;;;;5135422;27;19908;-87
2020/12/26 00:23:45;;;;;;;;;;;2.10;99.90;;;;;;5134895;27;19994;-87
2020/12/26 00:26:21;;;;;;;;;;;2.10;99.90;;;;;;5135537;27;19907;-87
2020/12/26 00:28:50;;;;;;;;;;;2.20;99.90;;;;;;5130468;27;20348;-87
2020/12/26 00:31:17;;;;;;;;;;;2.20;99.90;;;;;;5130892;27;20352;-87
2020/12/26 00:33:45;;;;;;;;;;;2.30;99.90;;;;;;5135304;27;20010;-87
2020/12/26 00:36:18;;;;;;;;;;;2.30;99.90;;;;;;5135602;27;19908;-87
2020/12/26 00:38:46;;;;;;;;;;;2.30;99.90;;;;;;5132131;27;20263;-86
2020/12/26 00:41:14;;;;;;;;;;;2.40;99.90;;;;;;5130610;27;20421;-87
2020/12/26 00:43:50;;;;;;;;;;;2.40;99.90;;;;;;5136167;27;20364;-87
2020/12/26 00:46:23;;;;;;;;;;;2.50;99.90;;;;;;5131892;27;19911;-87
2020/12/26 00:48:49;;;;;;;;;;;2.50;99.90;;;;;;5134761;27;19926;-87
2020/12/26 00:51:17;;;;;;;;;;;2.50;99.90;;;;;;5128365;27;19967;-87
2020/12/26 00:53:45;;;;;;;;;;;2.50;99.90;;;;;;5134594;27;19976;-87
2020/12/26 00:56:14;;;;;;;;;;;2.50;99.90;;;;;;5128309;27;19911;-87
2020/12/26 00:58:47;;;;;;;;;;;2.50;99.90;;;;;;5130749;27;19919;-87
2020/12/26 01:01:14;;;;;;;;;;;2.50;99.90;;;;;;5131847;27;19912;-87
2020/12/26 01:03:42;;;;;;;;;;;2.60;99.90;;;;;;5128365;27;20317;-87
2020/12/26 01:06:12;;;;;;;;;;;2.60;99.90;;;;;;5134246;27;20346;-88
2020/12/26 01:08:55;;;;;;;;;;;;;;;;;;;;;
2020/12/26 01:11:21;;;;;;;;;;;2.60;99.90;;;;;;5130485;27;20008;-86
2020/12/26 01:13:50;;;;;;;;;;;2.70;99.90;;;;;;5129523;27;20415;-86
2020/12/26 01:16:18;;;;;;;;;;;2.70;99.90;;;;;;5135295;27;20005;-86
2020/12/26 01:18:55;;;;;;;;;;;2.60;99.90;;;;;;5133973;27;19979;-85
2020/12/26 01:21:21;;;;;;;;;;;2.70;99.90;;;;;;5133703;27;19908;-86
2020/12/26 01:23:52;;;;;;;;;;;2.70;99.90;;;;;;5129043;27;20002;-86
2020/12/26 01:26:23;;;;;;;;;;;2.70;99.90;;;;;;5130841;27;19911;-86
2020/12/26 01:28:48;;;;;;;;;;;2.70;99.90;;;;;;5133409;27;20058;-85
2020/12/26 01:31:16;;;;;;;;;;;2.70;99.90;;;;;;5128728;28;19908;-86
2020/12/26 01:33:52;;;;;;;;;;;2.80;99.90;;;;;;5133484;28;20005;-85
2020/12/26 01:36:25;;;;;;;;;;;2.70;99.90;;;;;;5037193;28;20337;-86
2020/12/26 01:38:52;;;;;;;;;;;2.80;99.90;;;;;;5054160;28;19909;-86
2020/12/26 01:41:18;;;;;;;;;;;2.80;99.90;;;;;;5053833;28;20385;-86
2020/12/26 01:43:59;;;;;;;;;;;2.80;99.90;;;;;;5052715;28;19913;-86
2020/12/26 01:46:32;;;;;;;;;;;2.80;99.90;;;;;;5074859;28;19920;-86
2020/12/26 01:49:06;;;;;;;;;;;2.90;99.90;;;;;;5059996;28;19908;-86
2020/12/26 01:51:32;;;;;;;;;;;2.90;99.90;;;;;;5076460;28;19913;-86
2020/12/26 01:54:00;;;;;;;;;;;2.90;99.90;;;;;;5053066;28;19913;-87
2020/12/26 01:56:28;;;;;;;;;;;2.90;99.90;;;;;;5058594;28;19981;-86
2020/12/26 01:58:56;;;;;;;;;;;2.90;99.90;;;;;;5042191;28;19924;-86
2020/12/26 02:01:32;;;;;;;;;;;3.00;99.90;;;;;;5073512;28;19912;-87
2020/12/26 02:04:01;;;;;;;;;;;3.00;99.90;;;;;;5096041;28;20396;-87
2020/12/26 02:06:35;;;;;;;;;;;3.00;99.90;;;;;;5078334;28;20404;-86
2020/12/26 02:09:04;;;;;;;;;;;3.00;99.90;;;;;;5095579;28;19908;-86
2020/12/26 02:11:33;;;;;;;;;;;3.00;99.90;;;;;;5095554;28;19908;-86
2020/12/26 02:14:02;;;;;;;;;;;3.00;99.90;;;;;;5092441;28;19931;-87
2020/12/26 02:16:28;;;;;;;;;;;3.10;99.90;;;;;;5097265;27;19987;-86
2020/12/26 02:18:56;;;;;;;;;;;3.10;99.90;;;;;;5111399;28;20351;-87
2020/12/26 02:21:26;;;;;;;;;;;3.10;99.90;;;;;;5098589;28;19954;-86
2020/12/26 02:24:07;;;;;;;;;;;3.10;99.90;;;;;;5114275;28;19929;-86
2020/12/26 02:26:35;;;;;;;;;;;3.10;99.90;;;;;;5115938;28;20433;-86
2020/12/26 02:29:05;;;;;;;;;;;3.10;99.90;;;;;;5098492;28;19931;-86
2020/12/26 02:31:35;;;;;;;;;;;3.10;99.90;;;;;;5095805;28;19908;-87
2020/12/26 02:34:07;;;;;;;;;;;3.10;99.90;;;;;;5098628;28;19908;-86
2020/12/26 02:36:36;;;;;;;;;;;3.10;99.90;;;;;;5096225;28;19911;-86
2020/12/26 02:39:03;;;;;;;;;;;3.20;99.90;;;;;;5095814;28;20008;-86
2020/12/26 02:41:28;;;;;;;;;;;3.20;99.90;;;;;;5095842;28;20289;-86
2020/12/26 02:44:01;;;;;;;;;;;3.10;99.90;;;;;;5095234;28;19953;-86
2020/12/26 02:46:29;;;;;;;;;;;3.20;99.90;;;;;;5095734;28;19912;-86
2020/12/26 02:48:58;;;;;;;;;;;3.20;99.90;;;;;;5097261;27;20427;-87
2020/12/26 02:51:24;;;;;;;;;;;3.20;99.90;;;;;;5132306;27;19914;-86
2020/12/26 02:53:55;;;;;;;;;;;3.20;99.90;;;;;;5132071;27;19908;-86
2020/12/26 02:56:43;;;;;;;;;;;3.30;99.90;;;;;;5137058;27;20000;-86
2020/12/26 02:59:12;;;;;;;;;;;3.30;99.90;;;;;;5148491;27;19929;-86
2020/12/26 03:01:40;;;;;;;;;;;3.30;99.90;;;;;;5139884;27;20279;-86
2020/12/26 03:04:16;;;;;;;;;;;3.30;99.90;;;;;;5158130;27;19922;-85
2020/12/26 03:06:41;;;;;;;;;;;3.20;99.90;;;;;;5139785;27;19962;-86
2020/12/26 03:09:07;;;;;;;;;;;3.30;99.90;;;;;;5136607;27;19926;-86
2020/12/26 03:11:35;;;;;;;;;;;3.20;99.90;;;;;;5135142;27;19915;-85
2020/12/26 03:14:08;;;;;;;;;;;3.20;99.90;;;;;;5134803;27;19907;-86
2020/12/26 03:16:37;;;;;;;;;;;3.20;99.90;;;;;;5157890;27;19914;-86
2020/12/26 03:19:05;;;;;;;;;;;3.30;99.90;;;;;;5134389;27;19961;-85
2020/12/26 03:21:49;;;;;;;;;;;3.20;99.90;;;;;;5156315;27;19907;-86
2020/12/26 03:24:15;;;;;;;;;;;3.20;99.90;;;;;;5139772;27;20013;-86
2020/12/26 03:26:43;;;;;;;;;;;3.20;99.90;;;;;;5134722;27;20395;-86
2020/12/26 03:29:13;;;;;;;;;;;3.10;99.90;;;;;;5153700;27;19911;-86
2020/12/26 03:31:41;;;;;;;;;;;3.10;99.90;;;;;;5131858;27;19907;-86
2020/12/26 03:34:17;;;;;;;;;;;3.00;99.90;;;;;;5132585;27;19946;-87
2020/12/26 03:36:48;;;;;;;;;;;3.00;99.90;;;;;;5139607;27;19918;-86
2020/12/26 03:39:19;;;;;;;;;;;2.90;99.90;;;;;;5139618;27;19907;-86
2020/12/26 03:41:48;;;;;;;;;;;2.80;99.90;;;;;;5154327;27;19952;-86
2020/12/26 03:44:13;;;;;;;;;;;2.80;99.90;;;;;;5139067;27;19942;-86
2020/12/26 03:46:40;;;;;;;;;;;2.70;99.90;;;;;;5152825;27;19913;-86
2020/12/26 03:49:06;;;;;;;;;;;2.70;99.90;;;;;;5139075;27;20399;-87
2020/12/26 03:51:34;;;;;;;;;;;2.60;99.90;;;;;;5111488;28;19908;-86
2020/12/26 03:54:03;;;;;;;;;;;2.50;99.90;;;;;;5092704;28;19956;-86
2020/12/26 03:56:30;;;;;;;;;;;2.50;99.90;;;;;;5096891;28;19911;-86
2020/12/26 03:58:58;;;;;;;;;;;2.40;99.90;;;;;;5090464;28;19942;-85
2020/12/26 04:01:29;;;;;;;;;;;2.40;99.90;;;;;;5091956;28;19908;-86
2020/12/26 04:03:55;;;;;;;;;;;2.40;99.90;;;;;;5096699;28;20009;-85
2020/12/26 04:06:23;;;;;;;;;;;2.30;99.90;;;;;;5113733;28;20337;-86
2020/12/26 04:08:54;;;;;;;;;;;2.30;99.90;;;;;;5110074;28;20025;-86
2020/12/26 04:11:19;;;;;;;;;;;2.30;99.90;;;;;;5113828;28;20397;-85
2020/12/26 04:13:50;;;;;;;;;;;2.30;99.90;;;;;;5091291;28;19951;-86
2020/12/26 04:16:18;;;;;;;;;;;2.30;99.90;;;;;;5113918;28;19908;-86
2020/12/26 04:18:47;;;;;;;;;;;2.30;99.90;;;;;;5113965;28;20387;-86
2020/12/26 04:21:17;;;;;;;;;;;2.30;99.90;;;;;;5092899;28;19915;-86
2020/12/26 04:23:45;;;;;;;;;;;2.30;99.90;;;;;;5136195;27;19916;-85
2020/12/26 04:26:17;;;;;;;;;;;2.30;99.90;;;;;;5134853;27;19918;-87
2020/12/26 04:28:45;;;;;;;;;;;2.20;99.90;;;;;;5135405;27;20359;-85
2020/12/26 04:31:13;;;;;;;;;;;2.20;99.90;;;;;;5134705;27;19915;-85
2020/12/26 04:33:41;;;;;;;;;;;2.20;99.90;;;;;;5130999;27;19912;-85
2020/12/26 04:36:09;;;;;;;;;;;2.20;99.90;;;;;;5134750;27;19907;-86
2020/12/26 04:38:46;;;;;;;;;;;2.20;99.90;;;;;;5130613;27;20431;-85
2020/12/26 04:41:17;;;;;;;;;;;2.20;99.90;;;;;;5129118;27;19960;-85
2020/12/26 04:43:42;;;;;;;;;;;2.30;99.90;;;;;;5129146;27;20093;-85
2020/12/26 04:46:11;;;;;;;;;;;2.20;99.90;;;;;;5130019;27;19907;-86
2020/12/26 04:48:43;;;;;;;;;;;2.30;99.90;;;;;;5134199;27;19908;-85
2020/12/26 04:51:15;;;;;;;;;;;2.20;99.90;;;;;;5129358;27;19907;-85
2020/12/26 04:53:51;;;;;;;;;;;2.30;99.90;;;;;;5129065;27;19908;-85
2020/12/26 04:56:19;;;;;;;;;;;2.20;99.90;;;;;;5136298;27;19907;-85
2020/12/26 04:58:48;;;;;;;;;;;2.20;99.90;;;;;;5143541;27;19931;-85
2020/12/26 05:01:14;;;;;;;;;;;2.20;99.90;;;;;;5131664;27;19911;-85
2020/12/26 05:03:40;;;;;;;;;;;2.20;99.90;;;;;;5137862;27;19918;-86
2020/12/26 05:06:10;;;;;;;;;;;2.10;99.90;;;;;;5131631;27;19919;-85
2020/12/26 05:08:37;;;;;;;;;;;2.10;99.90;;;;;;5137638;27;19914;-86
2020/12/26 05:11:12;;;;;;;;;;;2.10;99.90;;;;;;5133555;27;19911;-85
2020/12/26 05:13:42;;;;;;;;;;;2.10;99.90;;;;;;5136862;27;20381;-84
2020/12/26 05:16:14;;;;;;;;;;;2.10;99.90;;;;;;5147070;27;20391;-85
2020/12/26 05:18:39;;;;;;;;;;;2.10;99.90;;;;;;5145147;27;19976;-86
2020/12/26 05:21:22;;;;;;;;;;;2.10;99.90;;;;;;5155684;27;19968;-86
2020/12/26 05:24:02;;;;;;;;;;;2.10;99.90;;;;;;5137347;27;19950;-86
2020/12/26 05:26:31;;;;;;;;;;;2.10;99.90;;;;;;5132084;27;19972;-86
2020/12/26 05:29:00;;;;;;;;;;;2.10;99.90;;;;;;5137054;27;19987;-86
2020/12/26 05:31:47;;;;;;;;;;;2.10;99.90;;;;;;5138092;27;20270;-86
2020/12/26 05:34:13;;;;;;;;;;;2.10;99.90;;;;;;5155266;27;19911;-86
2020/12/26 05:36:42;;;;;;;;;;;2.10;99.90;;;;;;5133275;27;19918;-86
2020/12/26 05:39:15;;;;;;;;;;;2.20;99.90;;;;;;5138479;27;20318;-86
2020/12/26 05:41:42;;;;;;;;;;;2.30;99.90;;;;;;5137631;27;19954;-86
2020/12/26 05:44:08;;;;;;;;;;;2.30;99.90;;;;;;5130959;27;19954;-86
2020/12/26 05:46:33;;;;;;;;;;;2.40;99.90;;;;;;5137458;27;20355;-87
2020/12/26 05:49:22;;;;;;;;;;;2.40;99.90;;;;;;5150864;27;19907;-86
2020/12/26 05:51:52;;;;;;;;;;;2.30;99.90;;;;;;5155286;27;19911;-87
2020/12/26 05:54:21;;;;;;;;;;;2.40;99.90;;;;;;5137454;27;19907;-86
2020/12/26 05:56:46;;;;;;;;;;;2.30;99.90;;;;;;5131139;27;19907;-86
2020/12/26 05:59:25;;;;;;;;;;;2.40;99.90;;;;;;5151317;27;19919;-85
2020/12/26 06:01:51;;;;;;;;;;;2.50;99.90;;;;;;5129613;27;19999;-86
2020/12/26 06:04:20;;;;;;;;;;;2.50;99.90;;;;;;5132335;27;20005;-86
2020/12/26 06:06:52;;;;;;;;;;;2.50;99.90;;;;;;5137376;27;20006;-85
2020/12/26 06:09:18;;;;;;;;;;;2.60;99.90;;;;;;5137993;27;20309;-85
2020/12/26 06:11:45;;;;;;;;;;;2.60;99.90;;;;;;5155698;27;19957;-85
2020/12/26 06:14:13;;;;;;;;;;;2.70;99.90;;;;;;5137657;27;20045;-85
2020/12/26 06:16:40;;;;;;;;;;;2.70;99.90;;;;;;5131026;27;19911;-85
2020/12/26 06:19:09;;;;;;;;;;;2.70;99.90;;;;;;5091745;28;20392;-85
2020/12/26 06:21:41;;;;;;;;;;;2.70;99.90;;;;;;5089137;28;20021;-85
2020/12/26 06:24:17;;;;;;;;;;;2.70;99.90;;;;;;5095508;28;20380;-86
2020/12/26 06:26:47;;;;;;;;;;;2.70;99.90;;;;;;5095727;28;19915;-88
2020/12/26 06:29:21;;;;;;;;;;;2.70;99.90;;;;;;5093123;28;20014;-86
2020/12/26 06:32:02;;;;;;;;;;;2.70;99.90;;;;;;5078691;28;20284;-86
2020/12/26 06:34:32;;;;;;;;;;;2.70;99.90;;;;;;5078670;28;19908;-86
2020/12/26 06:37:09;;;;;;;;;;;2.70;99.90;;;;;;5076395;28;20372;-86
2020/12/26 06:39:37;;;;;;;;;;;2.60;99.90;;;;;;5092928;28;19908;-86
2020/12/26 06:42:10;;;;;;;;;;;2.60;99.90;;;;;;5071254;28;19909;-86
2020/12/26 06:44:43;;;;;;;;;;;2.60;99.90;;;;;;5072214;28;19921;-87
2020/12/26 06:47:29;;;;;;;;;;;2.70;99.90;;;;;;5072355;28;20008;-85
2020/12/26 06:49:57;;;;;;;;;;;2.70;99.90;;;;;;5092251;28;19914;-85
2020/12/26 06:52:41;;;;;;;;;;;2.80;99.90;;;;;;5094229;28;19911;-85
2020/12/26 06:55:07;;;;;;;;;;;2.80;99.90;;;;;;5098269;28;19939;-85
2020/12/26 06:57:39;;;;;;;;;;;2.90;99.90;;;;;;5112197;28;20392;-86
2020/12/26 07:00:23;;;;;;;;;;;2.90;99.90;;;;;;5115128;28;20411;-86
2020/12/26 07:02:48;;;;;;;;;;;2.90;99.90;;;;;;5097856;28;19916;-86
2020/12/26 07:05:38;;;;;;;;;;;3.00;99.90;;;;;;5115531;28;19908;-85
2020/12/26 07:08:04;;;;;;;;;;;3.00;99.90;;;;;;5159060;27;19946;-85
2020/12/26 07:10:40;;;;;;;;;;;3.00;99.90;;;;;;5140383;27;19907;-85
2020/12/26 07:13:06;;;;;;;;;;;3.00;99.90;;;;;;5151033;27;20010;-88
2020/12/26 07:15:39;;;;;;;;;;;3.00;99.90;;;;;;5157830;27;20407;-85
2020/12/26 07:18:23;;;;;;;;;;;3.10;99.90;;;;;;5139972;27;19914;-85
2020/12/26 07:20:50;;;;;;;;;;;3.10;99.90;;;;;;5135401;27;19933;-86
2020/12/26 07:23:18;;;;;;;;;;;3.10;99.90;;;;;;5158200;27;20356;-86
2020/12/26 07:25:47;;;;;;;;;;;3.10;99.90;;;;;;5151496;27;19967;-87
2020/12/26 07:28:15;;;;;;;;;;;3.10;99.90;;;;;;5158118;27;19930;-86
2020/12/26 07:30:47;;;;;;;;;;;3.10;99.90;;;;;;5139312;27;19914;-86
2020/12/26 07:33:15;;;;;;;;;;;3.10;99.90;;;;;;5134138;27;20172;-86
2020/12/26 07:35:41;;;;;;;;;;;3.10;99.90;;;;;;5139704;27;20003;-86
2020/12/26 07:38:10;;;;;;;;;;;3.10;99.90;;;;;;5158128;27;19911;-86
2020/12/26 07:40:44;;;;;;;;;;;3.10;99.90;;;;;;5140349;27;19980;-86
2020/12/26 07:43:13;;;;;;;;;;;3.10;99.90;;;;;;5151715;27;19984;-87
2020/12/26 07:45:42;;;;;;;;;;;3.00;99.90;;;;;;5140250;27;19942;-86
2020/12/26 07:48:12;;;;;;;;;;;3.10;99.90;;;;;;5134278;27;19907;-87
2020/12/26 07:50:39;;;;;;;;;;;3.10;99.90;;;;;;5139992;27;19907;-87
2020/12/26 07:53:16;;;;;;;;;;;3.00;99.90;;;;;;5138879;27;19911;-87
2020/12/26 07:55:51;;;;;;;;;;;3.00;99.90;;;;;;5158175;27;19937;-87
2020/12/26 07:58:24;;;;;;;;;;;3.00;99.90;;;;;;5139491;27;19907;-86
2020/12/26 08:00:54;;;;;;;;;;;3.00;99.90;;;;;;5128548;27;19923;-86
2020/12/26 08:03:20;;;;;;;;;;;3.00;99.90;;;;;;5128818;28;19922;-87
2020/12/26 08:05:47;;;;;;;;;;;3.10;99.90;;;;;;5134103;28;19907;-87
2020/12/26 08:08:21;;;;;;;;;;;3.00;99.90;;;;;;5129484;28;19998;-86
2020/12/26 08:10:50;;;;;;;;;;;3.10;99.90;;;;;;5119017;28;20372;-86
2020/12/26 08:13:18;;;;;;;;;;;3.10;99.90;;;;;;5108435;28;19908;-87
2020/12/26 08:15:47;;;;;;;;;;;3.10;99.90;;;;;;5112409;28;20318;-88
2020/12/26 08:18:24;;;;;;;;;;;3.10;99.90;;;;;;5114848;28;20336;-87
2020/12/26 08:20:56;;;;;;;;;;;3.10;99.90;;;;;;5113777;28;20284;-87
2020/12/26 08:23:26;;;;;;;;;;;3.20;99.90;;;;;;5113952;28;19916;-87
2020/12/26 08:26:01;;;;;;;;;;;3.20;99.90;;;;;;5107232;28;19928;-87
2020/12/26 08:28:32;;;;;;;;;;;3.20;99.90;;;;;;5113428;28;19908;-86
2020/12/26 08:31:06;;;;;;;;;;;3.20;99.90;;;;;;5113978;28;19989;-86
2020/12/26 08:33:46;;;;;;;;;;;3.30;99.90;;;;;;5113952;28;19908;-87
2020/12/26 08:36:33;;;;;;;;;;;3.40;99.90;;;;;;5122757;28;19920;-88
2020/12/26 08:39:05;;;;;;;;;;;3.40;99.90;;;;;;5116116;28;19922;-87
2020/12/26 08:41:41;;;;;;;;;;;3.50;99.90;;;;;;5123003;28;19926;-87
2020/12/26 08:44:18;;;;;;;;;;;3.50;99.90;;;;;;5115040;28;19919;-87
2020/12/26 08:46:50;;;;;;;;;;;3.50;99.90;;;;;;5125388;28;19912;-86
2020/12/26 08:49:18;;;;;;;;;;;3.50;99.90;;;;;;5127783;28;19919;-87
2020/12/26 08:51:46;;;;;;;;;;;3.60;99.90;;;;;;5120375;28;20357;-88
2020/12/26 08:54:22;;;;;;;;;;;3.50;99.90;;;;;;5123784;28;19911;-87
2020/12/26 08:56:54;;;;;;;;;;;3.60;99.90;;;;;;5120701;28;20280;-86
2020/12/26 08:59:31;;;;;;;;;;;3.60;99.90;;;;;;5070871;27;1559026;-86
2020/12/26 09:02:09;;;;;;;;;;;3.70;99.90;;;;;;5126752;27;20287;-88
2020/12/26 09:04:38;;;;;;;;;;;3.70;99.90;;;;;;5116703;27;19919;-85
2020/12/26 09:07:18;;;;;;;;;;;3.70;99.90;;;;;;5131255;27;20372;-86
2020/12/26 09:09:44;;;;;;;;;;;3.80;99.90;;;;;;5124514;27;19998;-86
2020/12/26 09:12:13;;;;;;;;;;;3.80;99.90;;;;;;5125025;27;19961;-85
2020/12/26 09:14:44;;;;;;;;;;;3.80;99.90;;;;;;5127439;27;19958;-86
2020/12/26 09:17:22;;;;;;;;;;;3.80;99.90;;;;;;5126804;27;19908;-86
2020/12/26 09:19:52;;;;;;;;;;;3.90;99.90;;;;;;5128269;27;20367;-86
2020/12/26 09:22:36;;;;;;;;;;;3.90;99.90;;;;;;5092321;28;19970;-88
2020/12/26 09:25:24;;;;;;;;;;;4.00;99.90;;;;;;5090093;28;19948;-88
2020/12/26 09:28:03;;;;;;;;;;;4.10;99.90;;;;;;5075490;28;19915;-87
2020/12/26 09:30:31;;;;;;;;;;;4.20;99.90;;;;;;5092657;28;19947;-88
2020/12/26 09:33:02;;;;;;;;;;;4.30;99.90;;;;;;5092073;28;19995;-88
2020/12/26 09:35:32;;;;;;;;;;;4.40;99.90;;;;;;5070057;28;19918;-88
2020/12/26 09:37:58;;;;;;;;;;;4.50;99.90;;;;;;5077884;28;19912;-88
2020/12/26 09:40:30;;;;;;;;;;;4.70;99.90;;;;;;5055743;28;20011;-88
2020/12/26 09:43:01;;;;;;;;;;;4.80;99.90;;;;;;5055431;28;19923;-88
2020/12/26 09:45:34;;;;;;;;;;;4.90;99.90;;;;;;5091516;28;19912;-90
2020/12/26 09:48:11;;;;;;;;;;;5.00;99.90;;;;;;5092894;28;19959;-89
2020/12/26 09:50:44;;;;;;;;;;;5.00;99.90;;;;;;5075665;28;19908;-89
2020/12/26 09:53:16;;;;;;;;;;;5.00;99.90;;;;;;5091330;28;19911;-90
2020/12/26 09:56:05;;;;;;;;;;;5.00;99.90;;;;;;5092854;28;20300;-89
2020/12/26 09:58:59;;;;;;;;;;;5.00;99.90;;;;;;5095444;28;19970;-91
2020/12/26 10:01:27;;;;;;;;;;;5.00;99.90;;;;;;5078899;28;19920;-90
2020/12/26 10:04:08;;;;;;;;;;;5.00;99.90;;;;;;5090634;28;19913;-90
2020/12/26 10:06:39;;;;;;;;;;;5.10;99.90;;;;;;5097173;28;20390;-90
2020/12/26 10:09:10;;;;;;;;;;;5.10;99.90;;;;;;5103294;28;20360;-90
2020/12/26 10:11:41;;;;;;;;;;;5.20;99.90;;;;;;5102634;28;19909;-91
2020/12/26 10:14:09;;;;;;;;;;;5.40;99.90;;;;;;5093257;28;19944;-90
2020/12/26 10:16:40;;;;;;;;;;;5.80;99.90;;;;;;5095454;28;19916;-89
2020/12/26 10:19:09;;;;;;;;;;;6.10;99.90;;;;;;5096544;28;19912;-90
2020/12/26 10:21:43;;;;;;;;;;;6.20;99.90;;;;;;5096445;28;19972;-90
2020/12/26 10:24:26;;;;;;;;;;;6.20;99.90;;;;;;5055940;28;19925;-90
2020/12/26 10:27:06;;;;;;;;;;;6.00;99.90;;;;;;5039346;28;19909;-90
2020/12/26 10:29:34;;;;;;;;;;;5.80;99.90;;;;;;5055921;28;20426;-89
2020/12/26 10:32:03;;;;;;;;;;;5.60;99.90;;;;;;5052006;28;19908;-90
2020/12/26 10:34:37;;;;;;;;;;;5.40;99.90;;;;;;5056379;28;20390;-89
2020/12/26 10:37:04;;;;;;;;;;;5.20;99.90;;;;;;5056485;28;20285;-89
2020/12/26 10:39:39;;;;;;;;;;;5.00;99.90;;;;;;5056618;28;19909;-89
2020/12/26 10:42:06;;;;;;;;;;;4.90;99.90;;;;;;5056504;28;19916;-89
2020/12/26 10:44:32;;;;;;;;;;;4.90;99.90;;;;;;5056169;28;19996;-89
2020/12/26 10:47:00;;;;;;;;;;;4.80;99.90;;;;;;5056071;28;19955;-90
2020/12/26 10:49:26;;;;;;;;;;;4.80;99.90;;;;;;5105026;27;19941;-89
2020/12/26 10:51:56;;;;;;;;;;;4.80;99.90;;;;;;5138054;27;19914;-89
2020/12/26 10:54:31;;;;;;;;;;;4.90;99.90;;;;;;5134458;27;20387;-89
2020/12/26 10:57:00;;;;;;;;;;;4.90;99.90;;;;;;5096367;28;19915;-89
2020/12/26 10:59:28;;;;;;;;;;;5.00;99.90;;;;;;5074680;28;19920;-90
2020/12/26 11:01:54;;;;;;;;;;;5.10;99.90;;;;;;5092234;28;19908;-90
2020/12/26 11:04:20;;;;;;;;;;;5.10;99.90;;;;;;5079764;28;19916;-90
2020/12/26 11:06:50;;;;;;;;;;;5.10;99.90;;;;;;5093084;28;19909;-90
2020/12/26 11:09:18;;;;;;;;;;;5.10;99.90;;;;;;5052727;28;19959;-90
2020/12/26 11:11:54;;;;;;;;;;;5.20;99.90;;;;;;5033615;28;19972;-91
2020/12/26 11:14:27;;;;;;;;;;;5.20;99.90;;;;;;5053997;28;19913;-91
2020/12/26 11:16:58;;;;;;;;;;;5.10;99.90;;;;;;5037518;28;19953;-90
2020/12/26 11:19:27;;;;;;;;;;;5.10;99.90;;;;;;5039082;28;19999;-92
2020/12/26 11:22:01;;;;;;;;;;;5.00;99.90;;;;;;4993867;28;19961;-90
2020/12/26 11:24:32;;;;;;;;;;;5.00;99.90;;;;;;4991027;28;19953;-89
2020/12/26 11:27:03;;;;;;;;;;;5.00;99.90;;;;;;4979462;28;20004;-89
2020/12/26 11:29:31;;;;;;;;;;;5.00;99.90;;;;;;4980791;28;19914;-90
2020/12/26 11:32:15;;;;;;;;;;;5.00;99.90;;;;;;4979488;28;20407;-89
2020/12/26 11:34:46;;;;;;;;;;;5.00;99.90;;;;;;4968385;28;19980;-89
2020/12/26 11:37:49;;;;;;;;;;;5.00;99.90;;;;;;4975900;28;19910;-90
2020/12/26 11:40:20;;;;;;;;;;;5.00;99.90;;;;;;4975459;28;19917;-87
2020/12/26 11:42:59;;;;;;;;;;;5.00;99.90;;;;;;4982281;28;19932;-87
2020/12/26 11:45:40;;;;;;;;;;;5.00;99.90;;;;;;4979814;28;19925;-88
2020/12/26 11:48:08;;;;;;;;;;;5.00;99.90;;;;;;4994115;28;20355;-89
2020/12/26 11:50:37;;;;;;;;;;;5.00;99.90;;;;;;4994626;28;19964;-89
2020/12/26 11:53:08;;;;;;;;;;;5.00;99.90;;;;;;5006686;28;19953;-88
2020/12/26 11:55:44;;;;;;;;;;;5.00;99.90;;;;;;4998496;28;19921;-90
2020/12/26 11:58:14;;;;;;;;;;;5.00;99.90;;;;;;5032404;28;19920;-90
2020/12/26 12:00:51;;;;;;;;;;;5.00;99.90;;;;;;5036651;28;20040;-88
2020/12/26 12:03:17;;;;;;;;;;;5.10;99.90;;;;;;5069133;28;19913;-89
2020/12/26 12:05:43;;;;;;;;;;;5.10;99.90;;;;;;5068776;28;20392;-88
2020/12/26 12:08:31;;;;;;;;;;;5.10;99.90;;;;;;5077962;28;20018;-89
2020/12/26 12:11:11;;;;;;;;;;;5.20;99.90;;;;;;5093656;28;19975;-89
2020/12/26 12:13:44;;;;;;;;;;;5.20;99.90;;;;;;5064416;28;19908;-91
2020/12/26 12:16:15;;;;;;;;;;;5.20;99.90;;;;;;5057540;28;19966;-90
2020/12/26 12:18:47;;;;;;;;;;;5.30;99.90;;;;;;5076518;27;19939;-90
2020/12/26 12:21:17;;;;;;;;;;;5.30;99.90;;;;;;5132335;27;19954;-88
2020/12/26 12:24:06;;;;;;;;;;;5.30;99.90;;;;;;5137648;27;19916;-90
2020/12/26 12:26:35;;;;;;;;;;;5.30;99.90;;;;;;5103389;27;19915;-89
2020/12/26 12:29:09;;;;;;;;;;;5.30;99.90;;;;;;5115081;27;19929;-89
2020/12/26 12:31:39;;;;;;;;;;;5.40;99.90;;;;;;5119279;27;19911;-89
2020/12/26 12:34:10;;;;;;;;;;;5.40;99.90;;;;;;5137055;27;20347;-89
2020/12/26 12:36:45;;;;;;;;;;;5.40;99.90;;;;;;5113850;27;19952;-90
2020/12/26 12:39:18;;;;;;;;;;;5.40;99.90;;;;;;5118902;27;19908;-88
2020/12/26 12:41:44;;;;;;;;;;;5.40;99.90;;;;;;5114873;27;19915;-89
2020/12/26 12:44:09;;;;;;;;;;;5.40;99.90;;;;;;5129385;27;20014;-89
2020/12/26 12:46:38;;;;;;;;;;;5.50;99.90;;;;;;5129270;27;19908;-88
2020/12/26 12:49:05;;;;;;;;;;;5.50;99.90;;;;;;5119476;27;20303;-88
2020/12/26 12:51:30;;;;;;;;;;;5.60;99.90;;;;;;5114211;27;19907;-89
2020/12/26 12:53:56;;;;;;;;;;;5.60;99.90;;;;;;5119009;27;19907;-88
2020/12/26 12:56:28;;;;;;;;;;;5.70;99.90;;;;;;5118587;27;20285;-89
2020/12/26 12:58:53;;;;;;;;;;;5.70;99.90;;;;;;5118709;27;19923;-90
2020/12/26 13:01:19;;;;;;;;;;;5.60;99.90;;;;;;5112365;28;19924;-89
2020/12/26 13:03:44;;;;;;;;;;;5.60;99.90;;;;;;5108980;28;19967;-89
2020/12/26 13:06:15;;;;;;;;;;;5.60;99.90;;;;;;5114659;28;19912;-89
2020/12/26 13:08:40;;;;;;;;;;;5.60;99.90;;;;;;5111629;27;19960;-90
2020/12/26 13:11:06;;;;;;;;;;;5.60;99.90;;;;;;5128646;27;19919;-91
2020/12/26 13:13:32;;;;;;;;;;;5.60;99.90;;;;;;5132116;27;20008;-88
2020/12/26 13:16:02;;;;;;;;;;;5.60;99.90;;;;;;5121137;27;19908;-88
2020/12/26 13:18:29;;;;;;;;;;;5.60;99.90;;;;;;5108407;27;19912;-86
2020/12/26 13:20:57;;;;;;;;;;;5.70;99.90;;;;;;5118961;27;20002;-88
2020/12/26 13:23:27;;;;;;;;;;;5.70;99.90;;;;;;5119854;27;19912;-89
2020/12/26 13:25:55;;;;;;;;;;;5.70;99.90;;;;;;5126833;27;19965;-87
2020/12/26 13:28:23;;;;;;;;;;;5.70;99.90;;;;;;5126182;27;19915;-88
2020/12/26 13:30:52;;;;;;;;;;;5.70;99.90;;;;;;5133938;27;20017;-89
2020/12/26 13:33:20;;;;;;;;;;;5.70;99.90;;;;;;5123519;27;19919;-87
2020/12/26 13:35:58;;;;;;;;;;;5.70;99.90;;;;;;5134655;27;19915;-89
2020/12/26 13:38:33;;;;;;;;;;;5.70;99.90;;;;;;5128942;28;19915;-86
2020/12/26 13:41:03;;;;;;;;;;;5.70;99.90;;;;;;5124723;28;19995;-90
2020/12/26 13:43:36;;;;;;;;;;;5.60;99.90;;;;;;5117024;28;19916;-90
2020/12/26 13:46:01;;;;;;;;;;;5.60;99.90;;;;;;5114054;28;19911;-88
2020/12/26 13:48:36;;;;;;;;;;;5.60;99.90;;;;;;5109405;28;20364;-87
2020/12/26 13:51:06;;;;;;;;;;;5.60;99.90;;;;;;5111153;28;19957;-89
2020/12/26 13:53:34;;;;;;;;;;;5.60;99.90;;;;;;5115149;28;20014;-88
2020/12/26 13:56:02;;;;;;;;;;;5.50;99.90;;;;;;5107944;28;19908;-88
2020/12/26 13:58:30;;;;;;;;;;;5.60;99.90;;;;;;5111494;28;19912;-87
2020/12/26 14:00:56;;;;;;;;;;;5.50;99.90;;;;;;5108945;28;19931;-88
2020/12/26 14:03:24;;;;;;;;;;;5.50;99.90;;;;;;5116754;28;19919;-89
2020/12/26 14:06:12;;;;;;;;;;;5.50;99.90;;;;;;5113876;28;19915;-87
2020/12/26 14:08:50;;;;;;;;;;;5.50;99.90;;;;;;5109053;28;19908;-89
2020/12/26 14:11:20;;;;;;;;;;;5.50;99.90;;;;;;5096479;28;19912;-88
2020/12/26 14:14:15;;;;;;;;;;;5.50;99.90;;;;;;5114120;28;19916;-88
2020/12/26 14:16:46;;;;;;;;;;;5.40;99.90;;;;;;5096628;28;19919;-89
2020/12/26 14:19:11;;;;;;;;;;;5.40;99.90;;;;;;5114147;28;19907;-89
2020/12/26 14:21:39;;;;;;;;;;;5.50;99.90;;;;;;5109556;28;20025;-89
2020/12/26 14:24:11;;;;;;;;;;;5.50;99.90;;;;;;5122843;28;19918;-89
2020/12/26 14:26:43;;;;;;;;;;;5.50;99.90;;;;;;5111229;28;19927;-89
2020/12/26 14:29:11;;;;;;;;;;;5.50;99.90;;;;;;5107112;28;19915;-89
2020/12/26 14:31:50;;;;;;;;;;;5.50;99.90;;;;;;5112562;28;20407;-89
2020/12/26 14:34:16;;;;;;;;;;;5.50;99.90;;;;;;5096389;28;19912;-93
2020/12/26 14:36:46;;;;;;;;;;;5.50;99.90;;;;;;5125571;28;20276;-89
2020/12/26 14:39:18;;;;;;;;;;;5.60;99.90;;;;;;5095759;28;20006;-89
2020/12/26 14:42:03;;;;;;;;;;;5.50;99.90;;;;;;5115106;28;20361;-90
2020/12/26 14:44:36;;;;;;;;;;;5.50;99.90;;;;;;5116891;28;20368;-89
2020/12/26 14:47:06;;;;;;;;;;;5.50;99.90;;;;;;5051361;27;20016;-92
2020/12/26 14:49:33;;;;;;;;;;;5.50;99.90;;;;;;5120269;27;19919;-89
2020/12/26 14:52:04;;;;;;;;;;;5.50;99.90;;;;;;5121301;27;19918;-91
2020/12/26 14:54:34;;;;;;;;;;;5.50;99.90;;;;;;5115343;28;19912;-90